Time;durP1;ratioP1;P1;durP2;ratioP2;P2;SDS_P1;SDS_P2;PMS_P1;PMS_P2;Temp;Humidity;BMP_temperature;BMP_pressure;BME280_temperature;BME280_humidity;BME280_pressure;Samples;Min_cycle;Max_cycle;Signal;HPM_P1;HPM_P2
2022/10/24 00:00:57;;;;;;;10.07;1.88;;;15.40;99.90;;;;;;5010381;28;20058;-40
2022/10/24 00:03:24;;;;;;;11.32;2.22;;;15.40;99.90;;;;;;5011912;28;20141;-39
2022/10/24 00:05:50;;;;;;;7.68;1.70;;;15.30;99.90;;;;;;4994604;28;20101;-39
2022/10/24 00:08:17;;;;;;;7.68;2.05;;;15.40;99.90;;;;;;5009337;28;20061;-40
2022/10/24 00:10:45;;;;;;;9.07;1.90;;;15.40;99.90;;;;;;5013075;28;20100;-40
2022/10/24 00:13:13;;;;;;;10.50;1.70;;;15.30;99.90;;;;;;5010781;28;20545;-40
2022/10/24 00:15:40;;;;;;;9.43;2.05;;;15.30;99.90;;;;;;5018436;28;20091;-39
2022/10/24 00:18:07;;;;;;;6.22;1.65;;;15.40;99.90;;;;;;5014456;28;20050;-40
2022/10/24 00:20:35;;;;;;;11.38;1.80;;;15.30;99.90;;;;;;5016295;28;20397;-40
2022/10/24 00:23:02;;;;;;;6.18;1.67;;;15.40;99.90;;;;;;5012184;28;20151;-39
2022/10/24 00:25:29;;;;;;;5.68;1.60;;;15.40;99.90;;;;;;5011186;28;20155;-39
2022/10/24 00:27:56;;;;;;;12.05;1.90;;;15.40;99.90;;;;;;5006010;28;20479;-40
2022/10/24 00:30:24;;;;;;;6.30;1.48;;;15.30;99.90;;;;;;5016701;28;20501;-40
2022/10/24 00:32:51;;;;;;;8.23;2.03;;;15.40;99.90;;;;;;5005757;28;20058;-40
2022/10/24 00:35:17;;;;;;;7.63;1.63;;;15.40;99.90;;;;;;4992196;28;20089;-39
2022/10/24 00:37:44;;;;;;;8.35;1.80;;;15.40;99.90;;;;;;5008560;28;20120;-40
2022/10/24 00:40:12;;;;;;;4.22;1.45;;;15.40;99.90;;;;;;5014472;28;20445;-39
2022/10/24 00:42:39;;;;;;;6.20;1.70;;;15.40;99.90;;;;;;4986102;28;20116;-42
2022/10/24 00:45:47;;;;;;;9.73;1.73;;;15.30;99.90;;;;;;4994666;28;20112;-39
2022/10/24 00:48:21;;;;;;;4.55;1.50;;;15.40;99.90;;;;;;4967890;28;20129;-40
2022/10/24 00:50:48;;;;;;;6.45;1.75;;;15.30;99.90;;;;;;5006834;28;20135;-41
2022/10/24 00:53:15;;;;;;;7.90;1.73;;;15.30;99.90;;;;;;4988211;28;20088;-41
2022/10/24 00:55:42;;;;;;;8.60;1.88;;;15.30;99.90;;;;;;5012402;28;20128;-40
2022/10/24 00:58:09;;;;;;;7.90;2.28;;;15.30;99.90;;;;;;4994930;28;20061;-40
2022/10/24 01:00:36;;;;;;;9.43;2.35;;;15.30;99.90;;;;;;5025420;28;20088;-39
2022/10/24 01:03:03;;;;;;;9.38;2.10;;;15.30;99.90;;;;;;5003458;28;20046;-38
2022/10/24 01:05:35;;;;;;;8.43;2.28;;;15.30;99.90;;;;;;4990505;28;20073;-40
2022/10/24 01:08:06;;;;;;;7.93;2.15;;;15.40;99.90;;;;;;4989334;28;20134;-39
2022/10/24 01:10:37;;;;;;;5.15;2.10;;;15.40;99.90;;;;;;5000172;28;20405;-39
2022/10/24 01:13:09;;;;;;;12.98;3.00;;;15.40;99.90;;;;;;4989079;28;20568;-40
2022/10/24 01:15:39;;;;;;;11.35;2.60;;;15.40;99.90;;;;;;5012862;28;20117;-39
2022/10/24 01:18:08;;;;;;;5.53;2.53;;;15.40;99.90;;;;;;4986826;28;20550;-39
2022/10/24 01:20:58;;;;;;;8.48;2.65;;;15.40;99.90;;;;;;5017363;28;20140;-42
2022/10/24 01:24:00;;;;;;;9.40;2.60;;;15.40;99.90;;;;;;5021156;28;20547;-40
2022/10/24 01:27:03;;;;;;;10.80;2.78;;;15.50;99.90;;;;;;4985446;28;20480;-40
2022/10/24 01:29:41;;;;;;;11.43;2.97;;;15.50;99.90;;;;;;5017683;28;20046;-40
2022/10/24 01:32:10;;;;;;;9.75;2.85;;;15.50;99.90;;;;;;5015636;28;20128;-40
2022/10/24 01:34:40;;;;;;;10.25;2.78;;;15.50;99.90;;;;;;5012935;28;20077;-39
2022/10/24 01:37:09;;;;;;;10.77;3.03;;;15.50;99.90;;;;;;5024765;28;20494;-40
2022/10/24 01:39:38;;;;;;;12.48;3.20;;;15.50;99.90;;;;;;5031361;28;20144;-40
2022/10/24 01:42:04;;;;;;;8.85;2.70;;;15.50;99.90;;;;;;5031045;28;20067;-40
2022/10/24 01:44:33;;;;;;;7.55;2.70;;;15.50;99.90;;;;;;5020482;28;20137;-40
2022/10/24 01:47:03;;;;;;;10.82;2.70;;;15.40;99.90;;;;;;5030717;28;20057;-44
2022/10/24 01:49:31;;;;;;;9.25;2.72;;;15.40;99.90;;;;;;5029657;28;20089;-40
2022/10/24 01:52:00;;;;;;;9.63;2.95;;;15.40;99.90;;;;;;5030191;28;20053;-41
2022/10/24 01:54:26;;;;;;;9.05;2.80;;;15.30;99.90;;;;;;5027764;28;20132;-41
2022/10/24 01:56:53;;;;;;;11.48;2.88;;;15.40;99.90;;;;;;5014031;28;20081;-43
2022/10/24 01:59:43;;;;;;;12.18;3.15;;;15.40;99.90;;;;;;5008634;28;20057;-39
2022/10/24 02:02:13;;;;;;;11.45;2.88;;;15.40;99.90;;;;;;5009536;28;20136;-40
2022/10/24 02:04:43;;;;;;;12.57;3.13;;;15.40;99.90;;;;;;5020865;28;20080;-40
2022/10/24 02:07:10;;;;;;;11.60;2.65;;;15.40;99.90;;;;;;5029621;28;20096;-40
2022/10/24 02:09:37;;;;;;;6.93;2.45;;;15.40;99.90;;;;;;5015403;28;20096;-46
2022/10/24 02:12:04;;;;;;;8.35;2.67;;;15.40;99.90;;;;;;5022419;28;20049;-41
2022/10/24 02:14:33;;;;;;;10.63;2.75;;;15.40;99.90;;;;;;5018029;28;20045;-40
2022/10/24 02:17:00;;;;;;;8.38;2.80;;;15.30;99.90;;;;;;5033440;28;20069;-40
2022/10/24 02:19:28;;;;;;;12.50;2.67;;;15.40;99.90;;;;;;5034132;28;20466;-40
2022/10/24 02:21:58;;;;;;;9.63;2.55;;;15.40;99.90;;;;;;5017507;28;20095;-39
2022/10/24 02:24:27;;;;;;;6.53;2.85;;;15.40;99.90;;;;;;5021304;28;20477;-42
2022/10/24 02:26:55;;;;;;;9.45;2.25;;;15.40;99.90;;;;;;5014523;28;20050;-41
2022/10/24 02:29:24;;;;;;;9.25;2.95;;;15.40;99.90;;;;;;5000184;28;21500;-41
2022/10/24 02:31:53;;;;;;;10.43;3.72;;;15.30;99.90;;;;;;4997109;28;20133;-40
2022/10/24 02:34:19;;;;;;;8.93;2.33;;;15.30;99.90;;;;;;5006957;28;20442;-40
2022/10/24 02:36:48;;;;;;;18.05;3.30;;;15.30;99.90;;;;;;5026793;28;20454;-40
2022/10/24 02:39:15;;;;;;;11.60;2.88;;;15.30;99.90;;;;;;5014698;28;20836;-40
2022/10/24 02:41:42;;;;;;;14.60;3.72;;;15.30;99.90;;;;;;5013900;28;20050;-40
2022/10/24 02:44:09;;;;;;;8.25;2.80;;;15.30;99.90;;;;;;4997713;28;20490;-40
2022/10/24 02:46:36;;;;;;;6.85;2.42;;;15.40;99.90;;;;;;4998398;28;20053;-40
2022/10/24 02:49:03;;;;;;;12.10;2.90;;;15.30;99.90;;;;;;4997256;28;20049;-39
2022/10/24 02:51:31;;;;;;;10.43;2.30;;;15.30;99.90;;;;;;5015172;28;20184;-40
2022/10/24 02:54:00;;;;;;;9.60;2.10;;;15.30;99.90;;;;;;4997898;28;20145;-40
2022/10/24 02:56:27;;;;;;;8.98;2.65;;;15.30;99.90;;;;;;4998362;28;20133;-40
2022/10/24 02:58:53;;;;;;;16.58;2.38;;;15.30;99.90;;;;;;5014660;28;20054;-40
2022/10/24 03:01:20;;;;;;;8.93;2.65;;;15.30;99.90;;;;;;5013956;28;20089;-40
2022/10/24 03:03:47;;;;;;;11.13;2.25;;;15.30;99.90;;;;;;5014830;28;20490;-40
2022/10/24 03:06:14;;;;;;;9.07;2.58;;;15.30;99.90;;;;;;4991557;28;20084;-40
2022/10/24 03:08:41;;;;;;;9.68;2.38;;;15.20;99.90;;;;;;4996464;28;20441;-40
2022/10/24 03:11:09;;;;;;;8.52;2.40;;;15.30;99.90;;;;;;4996769;28;20054;-41
2022/10/24 03:13:36;;;;;;;11.23;2.72;;;15.20;99.90;;;;;;5013020;28;20523;-40
2022/10/24 03:16:03;;;;;;;9.20;2.65;;;15.30;99.90;;;;;;5012366;28;20148;-40
2022/10/24 03:18:30;;;;;;;9.50;2.75;;;15.20;99.90;;;;;;5003686;28;20407;-41
2022/10/24 03:20:57;;;;;;;8.32;2.30;;;15.30;99.90;;;;;;4983031;28;20446;-40
2022/10/24 03:23:27;;;;;;;10.32;2.47;;;15.20;99.90;;;;;;5014751;28;20439;-40
2022/10/24 03:25:54;;;;;;;9.50;2.70;;;15.20;99.90;;;;;;5005053;28;20050;-41
2022/10/24 03:28:22;;;;;;;10.82;2.50;;;15.20;99.90;;;;;;4994667;28;20065;-40
2022/10/24 03:30:49;;;;;;;11.75;3.03;;;15.20;99.90;;;;;;5030837;28;20103;-41
2022/10/24 03:33:16;;;;;;;6.80;2.50;;;15.20;99.90;;;;;;5021172;28;20133;-40
2022/10/24 03:35:43;;;;;;;8.00;2.65;;;15.20;99.90;;;;;;5003674;28;20453;-40
2022/10/24 03:38:09;;;;;;;9.90;3.03;;;15.20;99.90;;;;;;5001644;28;20566;-40
2022/10/24 03:40:36;;;;;;;12.93;2.80;;;15.10;99.90;;;;;;5020912;28;20050;-39
2022/10/24 03:43:03;;;;;;;14.88;2.40;;;15.10;99.90;;;;;;5027603;28;20049;-39
2022/10/24 03:45:32;;;;;;;12.25;3.10;;;15.20;99.90;;;;;;4998198;28;20077;-39
2022/10/24 03:47:58;;;;;;;10.20;3.15;;;15.10;99.90;;;;;;5009756;28;20125;-40
2022/10/24 03:50:25;;;;;;;8.52;2.88;;;15.10;99.90;;;;;;4996595;28;20546;-40
2022/10/24 03:52:52;;;;;;;11.32;2.42;;;15.10;99.90;;;;;;5023564;28;20121;-40
2022/10/24 03:55:19;;;;;;;9.48;2.50;;;15.10;99.90;;;;;;5025183;28;20077;-40
2022/10/24 03:57:46;;;;;;;13.18;2.83;;;15.10;99.90;;;;;;5026612;28;20053;-40
2022/10/24 04:00:13;;;;;;;10.75;2.80;;;15.10;99.90;;;;;;5008600;28;20060;-41
2022/10/24 04:02:41;;;;;;;12.15;2.53;;;15.10;99.90;;;;;;5032330;28;20045;-40
2022/10/24 04:05:09;;;;;;;11.57;2.50;;;15.10;99.90;;;;;;5029180;28;20049;-40
2022/10/24 04:07:35;;;;;;;9.02;2.50;;;15.10;99.90;;;;;;5012364;28;20057;-41
2022/10/24 04:10:02;;;;;;;9.77;2.95;;;15.10;99.90;;;;;;5021314;28;20486;-40
2022/10/24 04:12:29;;;;;;;14.82;2.40;;;15.10;99.90;;;;;;5004695;28;20137;-40
2022/10/24 04:14:56;;;;;;;8.40;2.60;;;15.10;99.90;;;;;;4999703;28;20054;-40
2022/10/24 04:17:22;;;;;;;8.80;2.22;;;15.20;99.90;;;;;;5013450;28;20089;-40
2022/10/24 04:19:50;;;;;;;15.88;2.40;;;15.10;99.90;;;;;;5021459;28;20148;-42
2022/10/24 04:22:17;;;;;;;9.32;2.38;;;15.10;99.90;;;;;;5015418;28;20046;-40
2022/10/24 04:24:44;;;;;;;17.65;2.65;;;15.10;99.90;;;;;;4999782;28;20155;-41
2022/10/24 04:27:11;;;;;;;6.25;2.08;;;15.10;99.90;;;;;;5027708;28;20418;-40
2022/10/24 04:29:38;;;;;;;10.23;2.35;;;15.10;99.90;;;;;;5012679;28;20501;-42
2022/10/24 04:32:05;;;;;;;11.25;2.60;;;15.00;99.90;;;;;;4999527;28;20132;-40
2022/10/24 04:34:34;;;;;;;17.85;2.70;;;15.00;99.90;;;;;;4998204;28;20141;-40
2022/10/24 04:37:02;;;;;;;8.93;2.42;;;15.00;99.90;;;;;;5011574;28;20410;-40
2022/10/24 04:39:29;;;;;;;9.27;3.00;;;14.90;99.90;;;;;;5000969;28;20565;-41
2022/10/24 04:41:56;;;;;;;11.43;2.15;;;14.90;99.90;;;;;;5009052;28;20549;-40
2022/10/24 04:44:23;;;;;;;10.25;2.10;;;14.80;99.90;;;;;;5008224;28;20061;-42
2022/10/24 04:46:49;;;;;;;7.82;2.35;;;14.80;99.90;;;;;;4992192;28;20127;-40
2022/10/24 04:49:16;;;;;;;7.40;2.53;;;14.80;99.90;;;;;;5009061;28;20108;-41
2022/10/24 04:51:43;;;;;;;9.63;2.53;;;14.80;99.90;;;;;;4992032;28;20561;-41
2022/10/24 04:54:11;;;;;;;14.25;2.70;;;14.80;99.90;;;;;;5017042;28;20085;-40
2022/10/24 04:56:38;;;;;;;7.95;1.90;;;14.80;99.90;;;;;;5013213;28;20046;-41
2022/10/24 04:59:05;;;;;;;10.48;2.20;;;14.80;99.90;;;;;;5000893;28;20069;-41
2022/10/24 05:01:32;;;;;;;10.68;2.28;;;14.80;99.90;;;;;;5007999;28;20077;-40
2022/10/24 05:03:58;;;;;;;14.50;2.47;;;14.80;99.90;;;;;;4993242;28;20089;-40
2022/10/24 05:06:25;;;;;;;9.35;2.55;;;14.80;99.90;;;;;;5011272;28;20124;-41
2022/10/24 05:08:52;;;;;;;13.30;2.22;;;14.80;99.90;;;;;;5007479;28;20077;-41
2022/10/24 05:11:20;;;;;;;9.95;1.73;;;14.80;99.90;;;;;;5005570;28;20120;-40
2022/10/24 05:13:47;;;;;;;7.28;1.77;;;14.80;99.90;;;;;;4997006;28;20081;-47
2022/10/24 05:16:14;;;;;;;7.80;2.03;;;14.80;99.90;;;;;;5016276;28;20090;-40
2022/10/24 05:18:40;;;;;;;7.85;2.35;;;14.80;99.90;;;;;;5009619;28;20478;-41
2022/10/24 05:21:07;;;;;;;7.72;2.13;;;14.90;99.90;;;;;;5004582;28;20073;-41
2022/10/24 05:23:34;;;;;;;11.50;2.17;;;14.90;99.90;;;;;;4986917;28;20141;-41
2022/10/24 05:26:01;;;;;;;7.03;2.00;;;14.90;99.90;;;;;;4999342;28;20086;-40
2022/10/24 05:28:29;;;;;;;11.38;2.17;;;14.80;99.90;;;;;;4994929;28;20058;-40
2022/10/24 05:30:56;;;;;;;12.00;1.88;;;14.80;99.90;;;;;;4977817;28;20054;-42
2022/10/24 05:33:23;;;;;;;6.60;1.70;;;14.80;99.90;;;;;;4975416;28;20479;-41
2022/10/24 05:35:49;;;;;;;7.13;2.08;;;14.80;99.90;;;;;;4993751;28;20507;-40
2022/10/24 05:38:16;;;;;;;7.78;1.90;;;14.80;99.90;;;;;;4984341;28;20561;-40
2022/10/24 05:40:46;;;;;;;16.77;2.17;;;14.80;99.90;;;;;;4993497;28;20377;-41
2022/10/24 05:43:13;;;;;;;5.75;1.90;;;14.70;99.90;;;;;;4989262;28;20049;-41
2022/10/24 05:45:41;;;;;;;9.55;1.70;;;14.70;99.90;;;;;;5001112;28;20132;-41
2022/10/24 05:48:08;;;;;;;9.10;2.08;;;14.70;99.90;;;;;;4998206;28;20145;-41
2022/10/24 05:50:35;;;;;;;13.27;2.03;;;14.70;99.90;;;;;;5000664;28;20412;-40
2022/10/24 05:53:01;;;;;;;13.95;2.53;;;14.70;99.90;;;;;;4994284;28;20462;-40
2022/10/24 05:55:30;;;;;;;7.18;1.83;;;14.80;99.90;;;;;;4984609;28;20073;-41
2022/10/24 05:57:56;;;;;;;8.75;1.80;;;14.80;99.90;;;;;;5007418;28;20042;-41
2022/10/24 06:00:23;;;;;;;9.27;2.13;;;14.80;99.90;;;;;;4973349;28;20149;-41
2022/10/24 06:02:51;;;;;;;7.22;2.00;;;14.80;99.90;;;;;;4993776;28;20096;-41
2022/10/24 06:05:18;;;;;;;7.53;1.70;;;14.80;99.90;;;;;;4999812;28;20054;-41
2022/10/24 06:07:45;;;;;;;9.30;2.03;;;14.80;99.90;;;;;;5000559;28;20125;-41
2022/10/24 06:10:12;;;;;;;7.80;2.10;;;14.80;99.90;;;;;;5012328;28;20050;-42
2022/10/24 06:12:42;;;;;;;11.07;1.90;;;14.80;99.90;;;;;;4989922;28;20054;-41
2022/10/24 06:15:09;;;;;;;7.93;1.70;;;14.80;99.90;;;;;;4999634;28;20096;-40
2022/10/24 06:17:36;;;;;;;10.98;2.00;;;14.80;99.90;;;;;;4955861;28;20058;-41
2022/10/24 06:20:04;;;;;;;7.13;1.70;;;14.90;99.90;;;;;;4986905;28;20046;-41
2022/10/24 06:22:31;;;;;;;8.20;1.98;;;14.80;99.90;;;;;;5004341;28;20085;-40
2022/10/24 06:24:58;;;;;;;8.45;2.33;;;14.80;99.90;;;;;;5007997;28;20121;-40
2022/10/24 06:27:25;;;;;;;9.05;2.15;;;14.80;99.90;;;;;;5020771;28;20144;-40
2022/10/24 06:29:52;;;;;;;11.20;1.77;;;14.80;99.90;;;;;;5015797;28;20108;-40
2022/10/24 06:32:19;;;;;;;12.93;2.25;;;14.90;99.90;;;;;;5011212;28;20050;-41
2022/10/24 06:34:46;;;;;;;8.70;1.67;;;14.90;99.90;;;;;;5009896;28;20081;-40
2022/10/24 06:37:14;;;;;;;8.30;1.70;;;14.80;99.90;;;;;;4996102;28;20513;-42
2022/10/24 06:39:41;;;;;;;10.38;2.25;;;14.90;99.90;;;;;;5006255;28;20049;-41
2022/10/24 06:42:07;;;;;;;9.05;2.15;;;14.90;99.90;;;;;;5010378;28;20054;-41
2022/10/24 06:44:34;;;;;;;8.63;1.70;;;14.90;99.90;;;;;;4995507;28;20141;-41
2022/10/24 06:47:01;;;;;;;7.93;1.38;;;14.90;99.90;;;;;;4996397;28;20081;-41
2022/10/24 06:49:28;;;;;;;5.10;1.42;;;14.80;99.90;;;;;;4997999;28;20052;-41
2022/10/24 06:51:54;;;;;;;7.85;1.50;;;14.80;99.90;;;;;;5012256;28;20093;-40
2022/10/24 06:54:23;;;;;;;7.38;1.65;;;14.80;99.90;;;;;;5011489;28;20121;-40
2022/10/24 06:56:49;;;;;;;10.85;1.65;;;14.80;99.90;;;;;;4999463;28;20081;-41
2022/10/24 06:59:17;;;;;;;6.00;1.33;;;14.90;99.90;;;;;;5017089;28;20053;-40
2022/10/24 07:01:44;;;;;;;8.93;1.48;;;14.90;99.90;;;;;;5020106;28;20052;-41
2022/10/24 07:04:10;;;;;;;9.38;1.88;;;14.90;99.90;;;;;;5007492;28;20057;-40
2022/10/24 07:06:37;;;;;;;7.85;1.50;;;14.90;99.90;;;;;;5006142;28;20489;-41
2022/10/24 07:09:04;;;;;;;8.75;1.73;;;14.90;99.90;;;;;;5025976;28;20125;-40
2022/10/24 07:11:33;;;;;;;10.07;2.05;;;15.00;99.90;;;;;;5022598;28;20099;-41
2022/10/24 07:14:00;;;;;;;10.10;1.60;;;15.00;99.90;;;;;;4991559;28;20043;-42
2022/10/24 07:16:26;;;;;;;6.95;1.75;;;15.00;99.90;;;;;;5019744;28;20045;-41
2022/10/24 07:18:53;;;;;;;7.32;1.52;;;15.10;99.90;;;;;;5001365;28;20156;-44
2022/10/24 07:21:21;;;;;;;6.70;1.40;;;15.20;99.90;;;;;;5014180;28;20077;-40
2022/10/24 07:23:47;;;;;;;12.77;1.70;;;15.30;99.90;;;;;;5014124;28;20129;-42
2022/10/24 07:26:15;;;;;;;13.25;2.63;;;15.30;99.90;;;;;;5001750;28;20045;-40
2022/10/24 07:28:45;;;;;;;7.35;1.73;;;15.30;99.90;;;;;;5009403;28;20092;-40
2022/10/24 07:31:13;;;;;;;4.38;1.23;;;15.40;99.90;;;;;;5014294;28;20530;-41
2022/10/24 07:33:40;;;;;;;8.27;1.80;;;15.50;99.90;;;;;;5014072;28;20101;-41
2022/10/24 07:36:08;;;;;;;9.50;1.75;;;15.50;99.90;;;;;;5017094;28;20066;-40
2022/10/24 07:38:35;;;;;;;8.90;2.00;;;15.50;99.90;;;;;;5013467;28;20057;-41
2022/10/24 07:41:03;;;;;;;14.82;2.13;;;15.50;99.90;;;;;;5020242;28;20058;-41
2022/10/24 07:43:30;;;;;;;11.98;2.30;;;15.40;99.90;;;;;;5014684;28;20391;-41
2022/10/24 07:45:58;;;;;;;8.05;2.25;;;15.40;99.90;;;;;;5024742;28;20107;-41
2022/10/24 07:48:25;;;;;;;10.35;1.92;;;15.40;99.90;;;;;;5014214;28;20692;-40
2022/10/24 07:50:53;;;;;;;5.57;1.80;;;15.40;99.90;;;;;;5006559;28;20093;-41
2022/10/24 07:53:19;;;;;;;5.75;2.10;;;15.40;99.90;;;;;;5013706;28;20445;-40
2022/10/24 07:55:46;;;;;;;9.45;1.98;;;15.50;99.90;;;;;;5007911;28;20082;-40
2022/10/24 07:58:13;;;;;;;8.77;2.08;;;15.50;99.90;;;;;;5013190;28;20128;-41
2022/10/24 08:00:40;;;;;;;9.60;2.17;;;15.50;99.90;;;;;;5029207;28;20057;-41
2022/10/24 08:03:08;;;;;;;9.43;1.92;;;15.60;99.90;;;;;;5013748;28;20069;-41
2022/10/24 08:05:35;;;;;;;10.80;1.70;;;15.60;99.90;;;;;;5011358;28;20081;-41
2022/10/24 08:08:01;;;;;;;11.82;1.70;;;15.60;99.90;;;;;;5012516;28;20099;-41
2022/10/24 08:10:28;;;;;;;9.57;1.65;;;15.70;99.90;;;;;;5013132;28;20061;-42
2022/10/24 08:12:55;;;;;;;10.05;1.42;;;15.70;99.90;;;;;;5006495;28;20050;-40
2022/10/24 08:15:24;;;;;;;10.15;1.80;;;15.80;99.90;;;;;;5013497;28;20072;-40
2022/10/24 08:17:51;;;;;;;8.68;1.60;;;15.80;99.90;;;;;;5017956;28;20461;-41
2022/10/24 08:20:19;;;;;;;20.08;2.67;;;15.90;99.90;;;;;;5013621;28;20129;-41
2022/10/24 08:22:46;;;;;;;10.32;1.90;;;15.90;99.90;;;;;;5013549;28;20042;-41
2022/10/24 08:25:13;;;;;;;7.78;1.60;;;16.00;99.90;;;;;;5006328;28;20128;-41
2022/10/24 08:27:40;;;;;;;11.00;1.90;;;16.00;99.90;;;;;;5011271;28;20323;-41
2022/10/24 08:30:07;;;;;;;11.05;2.17;;;16.10;99.90;;;;;;5009794;28;20112;-42
2022/10/24 08:32:35;;;;;;;10.60;1.88;;;16.10;99.90;;;;;;5009628;28;20081;-41
2022/10/24 08:35:01;;;;;;;6.65;1.50;;;16.10;99.90;;;;;;4996227;28;20445;-41
2022/10/24 08:37:29;;;;;;;11.77;2.00;;;16.20;99.90;;;;;;4991298;28;20410;-41
2022/10/24 08:39:56;;;;;;;7.55;1.52;;;16.20;99.90;;;;;;5023560;28;20081;-42
2022/10/24 08:42:23;;;;;;;9.95;2.03;;;16.30;99.90;;;;;;5011799;28;20129;-42
2022/10/24 08:44:50;;;;;;;10.15;1.95;;;16.30;99.90;;;;;;5013704;28;20573;-42
2022/10/24 08:47:19;;;;;;;10.00;1.80;;;16.30;99.90;;;;;;5010434;28;20088;-42
2022/10/24 08:49:48;;;;;;;9.57;1.83;;;16.40;99.90;;;;;;5007015;28;20527;-41
2022/10/24 08:52:19;;;;;;;8.50;1.70;;;16.50;99.90;;;;;;5004980;28;20525;-41
2022/10/24 08:54:47;;;;;;;13.40;1.90;;;16.60;99.90;;;;;;5013759;28;20162;-41
2022/10/24 08:57:19;;;;;;;7.20;1.50;;;16.60;99.90;;;;;;5000126;28;20077;-42
2022/10/24 08:59:46;;;;;;;15.25;2.45;;;16.70;99.90;;;;;;4995443;28;20141;-42
2022/10/24 09:02:15;;;;;;;11.02;1.52;;;16.80;99.90;;;;;;5006534;28;20054;-41
2022/10/24 09:04:46;;;;;;;11.38;2.20;;;17.00;99.90;;;;;;4992815;28;20086;-42
2022/10/24 09:07:15;;;;;;;9.98;1.73;;;17.10;99.90;;;;;;5008523;28;20103;-41
2022/10/24 09:09:45;;;;;;;10.27;1.58;;;17.10;99.90;;;;;;5012319;28;20465;-43
2022/10/24 09:12:14;;;;;;;11.13;1.85;;;17.10;99.90;;;;;;4995694;28;20068;-41
2022/10/24 09:14:42;;;;;;;11.75;2.22;;;17.10;99.90;;;;;;5010012;28;20108;-41
2022/10/24 09:17:12;;;;;;;8.73;1.63;;;17.00;99.90;;;;;;5009856;28;20088;-41
2022/10/24 09:19:39;;;;;;;7.68;1.35;;;17.00;99.90;;;;;;4991902;28;20498;-41
2022/10/24 09:22:06;;;;;;;14.63;2.03;;;17.00;99.90;;;;;;4993455;28;20046;-42
2022/10/24 09:24:36;;;;;;;12.23;2.08;;;17.00;99.90;;;;;;5010658;28;20042;-41
2022/10/24 09:27:04;;;;;;;7.37;1.50;;;17.00;99.90;;;;;;5012262;28;20233;-40
2022/10/24 09:29:33;;;;;;;11.10;1.75;;;16.90;99.90;;;;;;5011887;28;20553;-41
2022/10/24 09:32:00;;;;;;;6.85;1.70;;;16.90;99.90;;;;;;5012124;28;20089;-41
2022/10/24 09:34:26;;;;;;;9.23;1.88;;;16.90;99.90;;;;;;4982019;28;20104;-40
2022/10/24 09:36:53;;;;;;;7.95;1.52;;;17.00;99.90;;;;;;5008302;28;20049;-41
2022/10/24 09:39:30;;;;;;;10.68;1.83;;;17.00;99.90;;;;;;4993976;28;20525;-41
2022/10/24 09:41:57;;;;;;;9.27;2.05;;;17.00;99.90;;;;;;4993954;28;20180;-41
2022/10/24 09:44:33;;;;;;;9.45;1.73;;;17.00;99.90;;;;;;4994302;28;20088;-41
2022/10/24 09:47:00;;;;;;;13.05;2.55;;;16.90;99.90;;;;;;5012062;28;20133;-41
2022/10/24 09:49:31;;;;;;;10.20;1.90;;;17.00;99.90;;;;;;4995126;28;20145;-41
2022/10/24 09:52:05;;;;;;;9.88;1.48;;;17.10;99.90;;;;;;5011800;28;20078;-41
2022/10/24 09:54:31;;;;;;;12.52;2.08;;;17.20;99.90;;;;;;5011035;28;20148;-42
2022/10/24 09:57:02;;;;;;;10.63;1.55;;;17.30;99.90;;;;;;4993570;28;20449;-44
2022/10/24 09:59:48;;;;;;;5.18;1.40;;;17.40;99.90;;;;;;5008536;28;20058;-40
2022/10/24 10:02:23;;;;;;;10.60;1.90;;;17.50;99.90;;;;;;5011513;28;20049;-42
2022/10/24 10:05:16;;;;;;;14.45;1.73;;;17.50;99.90;;;;;;5008608;28;20463;-42
2022/10/24 10:07:47;;;;;;;15.65;1.70;;;17.50;99.90;;;;;;5009453;28;20305;-43
2022/10/24 10:10:30;;;;;;;7.65;1.50;;;17.60;99.90;;;;;;5011876;28;20494;-41
2022/10/24 10:13:18;;;;;;;12.40;1.70;;;17.50;99.90;;;;;;5011856;28;20058;-42
2022/10/24 10:15:47;;;;;;;8.45;2.00;;;17.50;99.90;;;;;;4994412;28;20052;-41
2022/10/24 10:18:22;;;;;;;12.43;1.85;;;17.40;99.90;;;;;;4994725;28;20455;-42
2022/10/24 10:20:58;;;;;;;8.98;1.60;;;17.60;99.90;;;;;;5010566;28;20084;-43
2022/10/24 10:23:26;;;;;;;10.65;1.65;;;17.70;99.90;;;;;;4993616;28;20049;-41
2022/10/24 10:26:03;;;;;;;7.43;1.48;;;17.80;99.90;;;;;;4993652;28;20096;-43
2022/10/24 10:28:30;;;;;;;9.55;1.50;;;17.80;99.90;;;;;;5002168;28;20058;-42
2022/10/24 10:30:58;;;;;;;8.50;1.65;;;17.70;99.90;;;;;;5011013;28;20467;-41
2022/10/24 10:33:28;;;;;;;7.78;1.20;;;17.70;99.90;;;;;;5013768;28;20052;-42
2022/10/24 10:35:58;;;;;;;7.18;1.58;;;17.70;99.90;;;;;;4997013;28;20463;-42
2022/10/24 10:38:37;;;;;;;4.50;1.00;;;17.70;99.90;;;;;;5014024;28;20133;-42
2022/10/24 10:41:07;;;;;;;6.75;1.25;;;17.60;99.90;;;;;;5015790;28;20078;-42
2022/10/24 10:43:36;;;;;;;7.13;1.42;;;17.70;99.90;;;;;;5014870;28;20465;-41
2022/10/24 10:46:12;;;;;;;9.25;1.52;;;17.70;99.90;;;;;;5015394;28;20054;-41
2022/10/24 10:48:45;;;;;;;7.53;1.55;;;17.80;99.90;;;;;;5014751;28;20045;-40
2022/10/24 10:51:14;;;;;;;6.70;1.40;;;17.70;99.90;;;;;;5008665;28;20471;-41
2022/10/24 10:53:43;;;;;;;8.80;1.10;;;17.60;99.90;;;;;;5013832;28;20096;-41
2022/10/24 10:56:18;;;;;;;8.95;1.20;;;17.70;99.90;;;;;;5014039;28;20133;-41
2022/10/24 10:58:48;;;;;;;9.50;1.33;;;17.60;99.90;;;;;;5014972;28;20077;-41
2022/10/24 11:01:20;;;;;;;6.47;1.30;;;17.80;99.90;;;;;;5006777;28;20100;-42
2022/10/24 11:03:48;;;;;;;7.68;1.10;;;17.80;99.90;;;;;;5007224;28;20084;-42
2022/10/24 11:06:34;;;;;;;5.03;1.15;;;17.80;99.90;;;;;;5007391;28;20049;-43
2022/10/24 11:09:30;;;;;;;7.65;1.48;;;17.80;99.90;;;;;;4997307;28;20134;-43
2022/10/24 11:12:03;;;;;;;9.70;1.92;;;17.70;99.90;;;;;;4996355;28;20057;-46
2022/10/24 11:14:31;;;;;;;7.35;1.63;;;17.70;99.90;;;;;;5015552;28;20053;-44
2022/10/24 11:17:04;;;;;;;12.07;1.63;;;17.80;99.90;;;;;;5015027;28;20505;-42
2022/10/24 11:19:34;;;;;;;7.38;1.50;;;17.90;99.90;;;;;;4984483;28;20451;-42
2022/10/24 11:22:02;;;;;;;7.95;1.25;;;18.10;99.90;;;;;;5011168;28;20097;-43
2022/10/24 11:24:28;;;;;;;7.65;1.10;;;18.10;99.90;;;;;;5014767;28;20049;-42
2022/10/24 11:26:56;;;;;;;9.43;1.52;;;18.20;99.90;;;;;;5013660;28;20490;-43
2022/10/24 11:29:26;;;;;;;6.05;1.33;;;18.20;99.90;;;;;;5002526;28;20085;-42
2022/10/24 11:31:55;;;;;;;14.35;1.83;;;18.30;99.90;;;;;;4997155;28;20057;-42
2022/10/24 11:34:25;;;;;;;7.80;1.33;;;18.30;99.90;;;;;;4982500;28;20517;-42
2022/10/24 11:36:52;;;;;;;6.60;1.42;;;18.40;99.90;;;;;;4993712;28;20546;-41
2022/10/24 11:39:21;;;;;;;6.47;1.30;;;18.50;99.90;;;;;;4995595;28;20572;-44
2022/10/24 11:41:52;;;;;;;5.22;1.20;;;18.50;99.90;;;;;;4994141;28;20104;-42
2022/10/24 11:44:37;;;;;;;5.53;0.90;;;18.40;99.90;;;;;;4984494;28;20152;-41
2022/10/24 11:47:29;;;;;;;9.68;1.27;;;18.20;99.90;;;;;;4987424;28;20049;-41
2022/10/24 11:50:00;;;;;;;6.95;1.30;;;18.20;99.90;;;;;;5004332;28;20388;-43
2022/10/24 11:52:28;;;;;;;5.78;1.10;;;18.20;99.90;;;;;;4963783;28;20133;-42
2022/10/24 11:54:58;;;;;;;8.30;1.20;;;18.20;99.90;;;;;;4996989;28;20046;-41
2022/10/24 11:57:26;;;;;;;6.47;1.55;;;18.10;99.90;;;;;;4991110;28;20066;-44
2022/10/24 11:59:53;;;;;;;6.68;1.00;;;18.00;99.90;;;;;;5012151;28;20050;-42
2022/10/24 12:02:41;;;;;;;6.78;1.65;;;18.10;99.90;;;;;;4986987;28;20053;-41
2022/10/24 12:05:19;;;;;;;5.60;1.10;;;18.10;99.90;;;;;;5003551;28;20107;-41
2022/10/24 12:08:10;;;;;;;7.00;1.58;;;18.00;99.90;;;;;;5010309;28;20104;-42
2022/10/24 12:11:18;;;;;;;6.65;1.15;;;17.90;99.90;;;;;;5012104;28;20648;-42
2022/10/24 12:13:57;;;;;;;13.32;1.50;;;17.90;99.90;;;;;;4995590;28;20077;-42
2022/10/24 12:16:30;;;;;;;8.88;1.25;;;17.80;99.90;;;;;;4983405;28;20391;-44
2022/10/24 12:18:58;;;;;;;7.75;1.35;;;17.80;99.90;;;;;;5010858;28;20057;-43
2022/10/24 12:21:27;;;;;;;6.32;1.10;;;17.80;99.90;;;;;;5010627;28;20159;-44
2022/10/24 12:23:55;;;;;;;4.45;1.30;;;17.80;99.90;;;;;;4996659;28;20108;-45
2022/10/24 12:26:25;;;;;;;8.48;1.30;;;17.70;99.90;;;;;;4985435;28;20105;-42
2022/10/24 12:28:56;;;;;;;8.25;1.17;;;17.70;99.90;;;;;;4994629;28;20475;-42
2022/10/24 12:31:26;;;;;;;6.43;1.10;;;17.70;99.90;;;;;;5014013;28;20133;-42
2022/10/24 12:34:29;;;;;;;8.15;1.27;;;17.80;99.90;;;;;;5013406;28;20043;-42
2022/10/24 12:37:10;;;;;;;7.55;1.20;;;17.90;99.90;;;;;;5013816;28;20215;-41
2022/10/24 12:39:38;;;;;;;7.38;1.23;;;18.10;99.90;;;;;;5013413;28;20405;-42
2022/10/24 12:42:05;;;;;;;9.68;1.70;;;18.10;99.90;;;;;;4993887;28;20089;-43
2022/10/24 12:44:50;;;;;;;5.82;1.25;;;18.10;99.90;;;;;;5008320;28;20731;-42
2022/10/24 12:47:29;;;;;;;5.28;1.00;;;18.00;99.90;;;;;;4995277;28;20541;-41
2022/10/24 12:49:56;;;;;;;7.00;1.25;;;18.00;99.90;;;;;;5026609;28;20041;-42
2022/10/24 12:53:03;;;;;;;7.55;1.60;;;18.10;99.90;;;;;;5001398;28;20054;-42
2022/10/24 12:56:03;;;;;;;6.82;1.20;;;18.10;99.90;;;;;;4997387;28;20054;-42